createdAt,value
2018-07-03T00:00:56.271Z,22.81
2018-07-03T00:01:56.294Z,22.75
2018-07-03T00:02:56.321Z,22.70
2018-07-03T00:03:56.345Z,22.72
2018-07-03T00:04:56.369Z,22.72
2018-07-03T00:05:56.398Z,22.69
2018-07-03T00:06:56.414Z,22.69
2018-07-03T00:07:56.436Z,22.74
2018-07-03T00:08:56.463Z,22.69
2018-07-03T00:09:56.488Z,22.66
2018-07-03T00:10:56.506Z,22.76
2018-07-03T00:11:56.529Z,22.70
2018-07-03T00:12:56.550Z,22.69
2018-07-03T00:13:56.574Z,22.67
2018-07-03T00:14:56.602Z,22.69
2018-07-03T00:15:56.623Z,22.74
2018-07-03T00:16:56.646Z,22.74
2018-07-03T00:17:56.673Z,22.66
2018-07-03T00:18:56.697Z,22.72
2018-07-03T00:19:56.720Z,22.72
2018-07-03T00:20:56.741Z,22.74
2018-07-03T00:21:56.764Z,22.63
2018-07-03T00:22:56.784Z,22.67
2018-07-03T00:23:56.809Z,22.74
2018-07-03T00:24:56.833Z,22.72
2018-07-03T00:25:56.857Z,22.75
2018-07-03T00:26:56.880Z,22.72
2018-07-03T00:27:56.902Z,22.72
2018-07-03T00:28:56.925Z,22.70
2018-07-03T00:29:56.950Z,22.74
2018-07-03T00:30:56.978Z,22.67
2018-07-03T00:31:56.999Z,22.72
2018-07-03T00:32:57.016Z,22.72
2018-07-03T00:33:57.040Z,22.64
2018-07-03T00:34:57.067Z,22.75
2018-07-03T00:35:57.091Z,22.69
2018-07-03T00:36:57.114Z,22.63
2018-07-03T00:37:57.137Z,22.63
2018-07-03T00:38:57.158Z,22.61
2018-07-03T00:39:57.183Z,22.66
2018-07-03T00:40:57.208Z,22.69
2018-07-03T00:41:57.232Z,22.66
2018-07-03T00:42:57.251Z,22.70
2018-07-03T00:43:57.275Z,22.69
2018-07-03T00:44:57.294Z,22.67
2018-07-03T00:45:57.321Z,22.70
2018-07-03T00:46:57.345Z,22.66
2018-07-03T00:47:57.368Z,22.69
2018-07-03T00:48:57.390Z,22.70
2018-07-03T00:49:57.414Z,22.69
2018-07-03T00:50:57.444Z,22.66
2018-07-03T00:51:57.465Z,22.66
2018-07-03T00:52:57.484Z,22.70
2018-07-03T00:53:57.508Z,22.61
2018-07-03T00:54:57.529Z,22.63
2018-07-03T00:55:57.550Z,22.60
2018-07-03T00:56:57.580Z,22.63
2018-07-03T00:57:57.602Z,22.59
2018-07-03T00:58:57.623Z,22.63
2018-07-03T00:59:57.645Z,22.61
2018-07-03T01:00:57.665Z,22.66
2018-07-03T01:01:57.690Z,22.56
2018-07-03T01:02:57.717Z,22.54
2018-07-03T01:03:57.740Z,22.60
2018-07-03T01:04:57.761Z,22.67
2018-07-03T01:05:57.785Z,22.56
2018-07-03T01:06:57.815Z,22.63
2018-07-03T01:07:57.841Z,22.59
2018-07-03T01:08:57.856Z,22.61
2018-07-03T01:09:57.880Z,22.61
2018-07-03T01:10:57.900Z,22.61
2018-07-03T01:11:57.920Z,22.64
2018-07-03T01:12:57.966Z,22.56
2018-07-03T01:13:57.973Z,22.57
2018-07-03T01:14:57.996Z,22.66
2018-07-03T01:15:58.017Z,22.59
2018-07-03T01:16:58.040Z,22.57
2018-07-03T01:17:58.064Z,22.56
2018-07-03T01:18:58.091Z,22.64
2018-07-03T01:19:58.114Z,22.56
2018-07-03T01:20:58.130Z,22.64
2018-07-03T01:21:58.153Z,22.54
2018-07-03T01:22:58.181Z,22.54
2018-07-03T01:23:58.203Z,22.63
2018-07-03T01:24:58.228Z,22.60
2018-07-03T01:25:58.255Z,22.60
2018-07-03T01:26:58.272Z,22.64
2018-07-03T01:27:58.294Z,22.57
2018-07-03T01:28:58.321Z,22.54
2018-07-03T01:29:58.345Z,22.57
2018-07-03T01:30:58.366Z,22.61
2018-07-03T01:31:58.387Z,22.66
2018-07-03T01:32:58.412Z,22.61
2018-07-03T01:33:58.433Z,22.59
2018-07-03T01:34:58.462Z,22.63
2018-07-03T01:35:58.489Z,22.56
2018-07-03T01:36:58.534Z,22.59
2018-07-03T01:37:58.527Z,22.56
2018-07-03T01:38:58.554Z,22.51
2018-07-03T01:39:58.576Z,22.52
2018-07-03T01:40:58.601Z,22.54
2018-07-03T01:41:58.622Z,22.60
2018-07-03T01:42:58.643Z,22.48
2018-07-03T01:43:58.664Z,22.64
2018-07-03T01:44:58.692Z,22.54
2018-07-03T01:45:58.716Z,22.54
2018-07-03T01:46:58.734Z,22.57
2018-07-03T01:47:58.757Z,22.54
2018-07-03T01:48:58.781Z,22.54
2018-07-03T01:49:58.805Z,22.56
2018-07-03T01:50:58.832Z,22.57
2018-07-03T01:51:58.862Z,22.54
2018-07-03T01:52:58.872Z,22.57
2018-07-03T01:53:58.898Z,22.49
2018-07-03T01:54:58.924Z,22.52
2018-07-03T01:55:58.946Z,22.54
2018-07-03T01:56:58.970Z,22.54
2018-07-03T01:57:58.995Z,22.51
2018-07-03T01:58:59.014Z,22.57
2018-07-03T01:59:59.039Z,22.56
2018-07-03T02:00:59.062Z,22.51
2018-07-03T02:01:59.088Z,22.51
2018-07-03T02:02:59.114Z,22.54
2018-07-03T02:03:59.134Z,22.54
2018-07-03T02:04:59.155Z,22.49
2018-07-03T02:05:59.179Z,22.60
2018-07-03T02:06:59.199Z,22.56
2018-07-03T02:07:59.221Z,22.54
2018-07-03T02:08:59.249Z,22.57
2018-07-03T02:09:59.273Z,22.59
2018-07-03T02:10:59.294Z,22.54
2018-07-03T02:11:59.316Z,22.56
2018-07-03T02:12:59.338Z,22.57
2018-07-03T02:13:59.364Z,22.57
2018-07-03T02:14:59.392Z,22.57
2018-07-03T02:15:59.412Z,22.57
2018-07-03T02:16:59.433Z,22.42
2018-07-03T02:17:59.454Z,22.52
2018-07-03T02:18:59.481Z,22.52
2018-07-03T02:19:59.506Z,22.51
2018-07-03T02:20:59.529Z,22.48
2018-07-03T02:21:59.551Z,22.52
2018-07-03T02:22:59.572Z,22.56
2018-07-03T02:23:59.602Z,22.52
2018-07-03T02:24:59.618Z,22.56
2018-07-03T02:25:59.644Z,22.51
2018-07-03T02:26:59.663Z,22.52
2018-07-03T02:27:59.685Z,22.56
2018-07-03T02:28:59.714Z,22.52
2018-07-03T02:29:59.734Z,22.46
2018-07-03T02:30:59.760Z,22.54
2018-07-03T02:31:59.785Z,22.49
2018-07-03T02:32:59.804Z,22.52
2018-07-03T02:33:59.827Z,22.54
2018-07-03T02:34:59.858Z,22.54
2018-07-03T02:35:59.876Z,22.42
2018-07-03T02:36:59.910Z,22.56
2018-07-03T02:37:59.922Z,22.48
2018-07-03T02:38:59.997Z,22.52
2018-07-03T02:39:59.963Z,22.44
2018-07-03T02:40:59.994Z,22.52
2018-07-03T02:42:00.024Z,22.49
2018-07-03T02:43:00.038Z,22.49
2018-07-03T02:44:00.068Z,22.48
2018-07-03T02:45:00.093Z,22.54
2018-07-03T02:46:00.105Z,22.52
2018-07-03T02:47:00.131Z,22.57
2018-07-03T02:48:00.154Z,22.52
2018-07-03T02:49:00.173Z,22.54
2018-07-03T02:50:00.197Z,22.54
2018-07-03T02:51:00.229Z,22.57
2018-07-03T02:52:00.247Z,22.52
2018-07-03T02:53:00.270Z,22.54
2018-07-03T02:54:00.296Z,22.54
2018-07-03T02:55:00.314Z,22.49
2018-07-03T02:56:00.337Z,22.54
2018-07-03T02:57:00.368Z,22.57
2018-07-03T02:58:00.389Z,22.57
2018-07-03T02:59:00.407Z,22.60
2018-07-03T03:00:00.430Z,22.63
2018-07-03T03:01:00.454Z,22.49
2018-07-03T03:02:00.477Z,22.49
2018-07-03T03:03:00.508Z,22.54
2018-07-03T03:04:00.528Z,22.57
2018-07-03T03:05:00.544Z,22.44
2018-07-03T03:06:00.568Z,22.46
2018-07-03T03:07:00.597Z,22.48
2018-07-03T03:08:00.620Z,22.44
2018-07-03T03:09:00.642Z,22.48
2018-07-03T03:10:00.668Z,22.42
2018-07-03T03:11:00.689Z,22.41
2018-07-03T03:12:00.708Z,22.45
2018-07-03T03:13:00.733Z,22.45
2018-07-03T03:14:00.756Z,22.46
2018-07-03T03:15:00.776Z,22.46
2018-07-03T03:16:00.798Z,22.46
2018-07-03T03:17:00.816Z,22.45
2018-07-03T03:18:00.853Z,22.59
2018-07-03T03:19:00.875Z,22.60
2018-07-03T03:20:00.897Z,22.72
2018-07-03T03:21:00.917Z,22.81
2018-07-03T03:22:00.938Z,22.94
2018-07-03T03:23:00.966Z,23.19
2018-07-03T03:24:00.990Z,23.22
2018-07-03T03:25:01.040Z,23.44
2018-07-03T03:26:01.035Z,23.54
2018-07-03T03:27:01.056Z,23.69
2018-07-03T03:28:01.077Z,23.78
2018-07-03T03:29:01.106Z,23.87
2018-07-03T03:30:01.131Z,23.89
2018-07-03T03:31:01.150Z,24.05
2018-07-03T03:32:01.174Z,24.24
2018-07-03T03:33:01.194Z,24.41
2018-07-03T03:34:01.220Z,24.56
2018-07-03T03:35:01.247Z,24.71
2018-07-03T03:36:01.269Z,24.86
2018-07-03T03:37:01.291Z,25.04
2018-07-03T03:38:01.313Z,25.11
2018-07-03T03:39:01.342Z,25.23
2018-07-03T03:40:01.365Z,25.30
2018-07-03T03:41:01.394Z,25.34
2018-07-03T03:42:01.416Z,25.30
2018-07-03T03:43:01.438Z,25.34
2018-07-03T03:44:01.461Z,25.31
2018-07-03T03:45:01.492Z,25.36
2018-07-03T03:46:01.510Z,25.23
2018-07-03T03:47:01.531Z,25.22
2018-07-03T03:48:01.554Z,25.23
2018-07-03T03:49:01.581Z,25.09
2018-07-03T03:50:01.608Z,25.24
2018-07-03T03:51:01.633Z,25.20
2018-07-03T03:52:01.659Z,25.30
2018-07-03T03:53:01.680Z,25.49
2018-07-03T03:54:01.705Z,25.66
2018-07-03T03:55:01.736Z,25.83
2018-07-03T03:56:01.756Z,26.03
2018-07-03T03:57:01.780Z,26.35
2018-07-03T03:58:01.804Z,26.53
2018-07-03T03:59:01.882Z,26.78
2018-07-03T04:00:01.850Z,26.97
2018-07-03T04:01:01.883Z,27.31
2018-07-03T04:02:01.908Z,27.43
2018-07-03T04:03:01.932Z,27.65
2018-07-03T04:04:01.953Z,27.80
2018-07-03T04:05:01.977Z,27.95
2018-07-03T04:06:02.003Z,28.09
2018-07-03T04:07:02.032Z,28.32
2018-07-03T04:08:02.055Z,28.45
2018-07-03T04:09:02.082Z,28.60
2018-07-03T04:10:02.108Z,28.79
2018-07-03T04:11:02.128Z,28.77
2018-07-03T04:12:02.152Z,29.07
2018-07-03T04:13:02.180Z,29.18
2018-07-03T04:14:02.206Z,29.39
2018-07-03T04:15:02.235Z,29.55
2018-07-03T04:16:02.262Z,29.63
2018-07-03T04:17:02.278Z,29.74
2018-07-03T04:18:02.310Z,29.95
2018-07-03T04:19:02.337Z,30.11
2018-07-03T04:20:02.362Z,30.16
2018-07-03T04:21:02.390Z,30.42
2018-07-03T04:22:02.422Z,30.54
2018-07-03T04:23:02.440Z,30.56
2018-07-03T04:24:02.469Z,30.75
2018-07-03T04:25:02.498Z,30.88
2018-07-03T04:26:02.528Z,31.05
2018-07-03T04:27:02.550Z,31.16
2018-07-03T04:28:02.572Z,31.23
2018-07-03T04:29:02.598Z,31.35
2018-07-03T04:30:02.633Z,31.42
2018-07-03T04:31:02.658Z,31.45
2018-07-03T04:32:02.685Z,31.59
2018-07-03T04:33:02.710Z,31.75
2018-07-03T04:34:02.753Z,31.87
2018-07-03T04:35:02.770Z,31.92
2018-07-03T04:36:02.797Z,31.92
2018-07-03T04:37:02.825Z,32.17
2018-07-03T04:38:02.853Z,32.47
2018-07-03T04:39:02.877Z,32.47
2018-07-03T04:40:02.905Z,32.58
2018-07-03T04:41:02.941Z,32.81
2018-07-03T04:42:02.966Z,32.76
2018-07-03T04:43:02.992Z,32.96
2018-07-03T04:44:03.019Z,33.09
2018-07-03T04:45:03.050Z,33.14
2018-07-03T04:46:03.080Z,33.29
2018-07-03T04:47:03.113Z,33.53
2018-07-03T04:48:03.143Z,33.60
2018-07-03T04:49:03.169Z,33.77
2018-07-03T04:50:03.200Z,33.82
2018-07-03T04:51:03.237Z,33.84
2018-07-03T04:52:03.258Z,34.03
2018-07-03T04:53:03.289Z,34.11
2018-07-03T04:54:03.320Z,34.15
2018-07-03T04:55:03.347Z,34.24
2018-07-03T04:56:03.375Z,34.31
2018-07-03T04:57:03.408Z,34.42
2018-07-03T04:58:03.439Z,34.64
2018-07-03T04:59:03.468Z,34.72
2018-07-03T05:00:03.498Z,34.67
2018-07-03T05:01:03.529Z,34.84
2018-07-03T05:02:03.558Z,34.95
2018-07-03T05:03:03.595Z,35.06
2018-07-03T05:04:03.625Z,35.05
2018-07-03T05:05:03.655Z,35.15
2018-07-03T05:06:03.685Z,35.12
2018-07-03T05:07:03.720Z,34.93
2018-07-03T05:08:03.752Z,34.78
2018-07-03T05:09:03.781Z,34.56
2018-07-03T05:10:03.846Z,34.40
2018-07-03T05:11:03.842Z,33.96
2018-07-03T05:12:03.872Z,33.82
2018-07-03T05:13:03.910Z,33.47
2018-07-03T05:14:03.941Z,33.38
2018-07-03T05:15:03.971Z,33.15
2018-07-03T05:16:04.001Z,32.93
2018-07-03T05:17:04.032Z,32.87
2018-07-03T05:18:04.065Z,32.69
2018-07-03T05:19:04.102Z,32.54
2018-07-03T05:20:04.133Z,32.47
2018-07-03T05:21:04.164Z,32.40
2018-07-03T05:22:04.197Z,32.27
2018-07-03T05:23:04.234Z,32.12
2018-07-03T05:24:04.267Z,32.05
2018-07-03T05:25:04.298Z,31.90
2018-07-03T05:26:04.331Z,31.88
2018-07-03T05:27:04.358Z,31.84
2018-07-03T05:28:04.392Z,31.79
2018-07-03T05:29:04.429Z,31.78
2018-07-03T05:30:04.464Z,31.56
2018-07-03T05:31:04.492Z,31.59
2018-07-03T05:32:04.526Z,31.60
2018-07-03T05:33:04.558Z,31.46
2018-07-03T05:34:04.612Z,31.42
2018-07-03T05:35:04.629Z,31.41
2018-07-03T05:36:04.659Z,31.30
2018-07-03T05:37:04.828Z,31.40
2018-07-03T05:38:04.720Z,31.27
2018-07-03T05:39:04.758Z,31.32
2018-07-03T05:40:04.797Z,31.22
2018-07-03T05:41:04.823Z,31.23
2018-07-03T05:42:04.857Z,31.28
2018-07-03T05:43:04.887Z,31.49
2018-07-03T05:44:05.126Z,31.59
2018-07-03T05:45:04.951Z,31.88
2018-07-03T05:46:04.983Z,32.40
2018-07-03T05:47:05.009Z,32.91
2018-07-03T05:48:05.041Z,33.15
2018-07-03T05:49:05.070Z,33.53
2018-07-03T05:50:05.101Z,33.71
2018-07-03T05:51:05.137Z,33.90
2018-07-03T05:52:05.170Z,34.15
2018-07-03T05:53:05.196Z,34.42
2018-07-03T05:54:05.228Z,34.52
2018-07-03T05:55:05.261Z,34.65
2018-07-03T05:56:05.293Z,34.84
2018-07-03T05:57:05.323Z,35.02
2018-07-03T05:58:05.354Z,34.99
2018-07-03T05:59:05.424Z,35.07
2018-07-03T06:00:05.529Z,35.32
2018-07-03T06:01:05.449Z,35.40
2018-07-03T06:02:05.475Z,35.37
2018-07-03T06:03:05.503Z,35.42
2018-07-03T06:04:05.531Z,35.49
2018-07-03T06:05:05.565Z,35.61
2018-07-03T06:06:05.595Z,35.71
2018-07-03T06:07:05.631Z,35.61
2018-07-03T06:08:05.659Z,35.73
2018-07-03T06:09:05.754Z,35.74
2018-07-03T06:10:05.716Z,35.95
2018-07-03T06:11:05.756Z,35.99
2018-07-03T06:12:05.783Z,35.62
2018-07-03T06:13:05.812Z,35.32
2018-07-03T06:14:05.846Z,34.87
2018-07-03T06:15:05.874Z,34.50
2018-07-03T06:16:05.901Z,34.18
2018-07-03T06:17:05.935Z,34.12
2018-07-03T06:18:05.968Z,33.93
2018-07-03T06:19:05.992Z,33.78
2018-07-03T06:20:06.149Z,33.65
2018-07-03T06:21:06.058Z,33.55
2018-07-03T06:22:06.090Z,33.45
2018-07-03T06:23:06.129Z,33.21
2018-07-03T06:24:06.161Z,33.14
2018-07-03T06:25:06.181Z,33.18
2018-07-03T06:26:06.215Z,33.26
2018-07-03T06:27:06.251Z,33.18
2018-07-03T06:28:06.282Z,32.78
2018-07-03T06:29:06.465Z,31.91
2018-07-03T06:30:06.352Z,31.31
2018-07-03T06:31:06.378Z,30.91
2018-07-03T06:32:06.409Z,30.25
2018-07-03T06:33:06.445Z,29.88
2018-07-03T06:34:06.477Z,29.62
2018-07-03T06:35:06.508Z,29.41
2018-07-03T06:36:06.537Z,29.03
2018-07-03T06:37:06.566Z,28.87
2018-07-03T06:38:06.598Z,28.77
2018-07-03T06:39:06.634Z,28.58
2018-07-03T06:40:06.664Z,28.61
2018-07-03T06:41:06.696Z,28.61
2018-07-03T06:42:06.883Z,28.46
2018-07-03T06:43:06.759Z,28.30
2018-07-03T06:44:06.848Z,28.25
2018-07-03T06:45:06.819Z,28.17
2018-07-03T06:46:06.849Z,28.24
2018-07-03T06:47:06.876Z,28.14
2018-07-03T06:48:06.904Z,27.62
2018-07-03T06:49:06.938Z,27.30
2018-07-03T06:50:06.974Z,27.24
2018-07-03T06:51:06.996Z,27.27
2018-07-03T06:52:07.025Z,27.27
2018-07-03T06:53:07.055Z,27.30
2018-07-03T06:54:07.085Z,27.25
2018-07-03T06:55:07.120Z,27.06
2018-07-03T06:56:07.148Z,26.88
2018-07-03T06:57:07.171Z,26.93
2018-07-03T06:58:07.205Z,26.93
2018-07-03T06:59:07.235Z,26.94
2018-07-03T07:00:07.264Z,26.91
2018-07-03T07:01:07.296Z,26.91
2018-07-03T07:02:07.320Z,27.11
2018-07-03T07:03:07.348Z,27.20
2018-07-03T07:04:07.393Z,27.16
2018-07-03T07:05:07.408Z,27.16
2018-07-03T07:06:07.440Z,27.13
2018-07-03T07:07:07.463Z,27.09
2018-07-03T07:08:07.490Z,26.91
2018-07-03T07:09:07.633Z,26.84
2018-07-03T07:10:07.548Z,26.79
2018-07-03T07:11:07.579Z,26.87
2018-07-03T07:12:07.605Z,26.83
2018-07-03T07:13:07.636Z,26.79
2018-07-03T07:14:07.663Z,26.73
2018-07-03T07:15:07.813Z,26.84
2018-07-03T07:16:07.717Z,26.91
2018-07-03T07:17:07.748Z,27.03
2018-07-03T07:18:07.768Z,26.97
2018-07-03T07:19:07.800Z,27.11
2018-07-03T07:20:07.836Z,27.16
2018-07-03T07:21:08.137Z,26.86
2018-07-03T07:22:08.035Z,26.56
2018-07-03T07:23:07.951Z,26.42
2018-07-03T07:24:07.941Z,26.39
2018-07-03T07:25:07.963Z,26.41
2018-07-03T07:26:08.003Z,26.56
2018-07-03T07:27:08.032Z,26.51
2018-07-03T07:28:08.053Z,26.44
2018-07-03T07:29:08.131Z,26.09
2018-07-03T07:30:08.107Z,25.96
2018-07-03T07:31:08.136Z,25.96
2018-07-03T07:32:08.160Z,25.86
2018-07-03T07:33:08.186Z,25.78
2018-07-03T07:34:08.210Z,26.00
2018-07-03T07:35:08.245Z,25.96
2018-07-03T07:36:08.267Z,25.94
2018-07-03T07:37:08.296Z,25.67
2018-07-03T07:38:08.452Z,25.78
2018-07-03T07:39:08.352Z,25.72
2018-07-03T07:40:08.374Z,25.48
2018-07-03T07:41:08.402Z,25.17
2018-07-03T07:42:08.432Z,25.02
2018-07-03T07:43:08.461Z,24.83
2018-07-03T07:44:08.480Z,24.98
2018-07-03T07:45:08.509Z,25.16
2018-07-03T07:46:08.538Z,25.31
2018-07-03T07:47:08.568Z,25.54
2018-07-03T07:48:08.602Z,25.71
2018-07-03T07:49:08.635Z,25.79
2018-07-03T07:50:08.644Z,25.89
2018-07-03T07:51:08.670Z,25.90
2018-07-03T07:52:08.705Z,25.94
2018-07-03T07:53:08.732Z,26.03
2018-07-03T07:54:08.752Z,26.06
2018-07-03T07:55:08.777Z,26.08
2018-07-03T07:56:08.801Z,26.11
2018-07-03T07:57:08.826Z,26.01
2018-07-03T07:58:08.862Z,25.98
2018-07-03T07:59:08.886Z,26.04
2018-07-03T08:00:08.952Z,26.03
2018-07-03T08:01:08.934Z,25.96
2018-07-03T08:02:08.971Z,26.06
2018-07-03T08:03:09.012Z,25.97
2018-07-03T08:04:09.018Z,25.89
2018-07-03T08:05:09.111Z,25.89
2018-07-03T08:06:09.068Z,25.94
2018-07-03T08:07:09.092Z,26.00
2018-07-03T08:08:09.123Z,25.97
2018-07-03T08:09:09.152Z,25.86
2018-07-03T08:10:09.169Z,25.89
2018-07-03T08:11:09.198Z,25.89
2018-07-03T08:12:09.225Z,25.82
2018-07-03T08:13:09.250Z,25.82
2018-07-03T08:14:09.282Z,25.83
2018-07-03T08:15:09.310Z,25.78
2018-07-03T08:16:09.332Z,25.44
2018-07-03T08:17:09.357Z,25.31
2018-07-03T08:18:09.388Z,25.39
2018-07-03T08:19:09.433Z,25.24
2018-07-03T08:20:09.438Z,25.35
2018-07-03T08:21:09.464Z,25.46
2018-07-03T08:22:09.487Z,25.53
2018-07-03T08:23:09.516Z,25.60
2018-07-03T08:24:09.545Z,25.60
2018-07-03T08:25:09.567Z,25.63
2018-07-03T08:26:09.684Z,25.67
2018-07-03T08:27:09.623Z,25.66
2018-07-03T08:28:09.645Z,25.71
2018-07-03T08:29:09.671Z,25.60
2018-07-03T08:30:09.697Z,25.61
2018-07-03T08:31:09.725Z,25.67
2018-07-03T08:32:09.759Z,25.63
2018-07-03T08:33:09.776Z,25.53
2018-07-03T08:34:09.813Z,25.66
2018-07-03T08:35:09.826Z,25.64
2018-07-03T08:36:09.848Z,25.66
2018-07-03T08:37:09.875Z,25.72
2018-07-03T08:38:09.907Z,25.71
2018-07-03T08:39:09.929Z,25.57
2018-07-03T08:40:09.950Z,25.59
2018-07-03T08:41:09.984Z,25.56
2018-07-03T08:42:10.068Z,25.51
2018-07-03T08:43:10.033Z,25.46
2018-07-03T08:44:10.063Z,25.46
2018-07-03T08:45:10.090Z,25.46
2018-07-03T08:46:10.109Z,25.49
2018-07-03T08:47:10.134Z,25.44
2018-07-03T08:48:10.160Z,25.48
2018-07-03T08:49:10.187Z,25.57
2018-07-03T08:50:10.213Z,25.53
2018-07-03T08:51:10.234Z,25.56
2018-07-03T08:52:10.264Z,25.56
2018-07-03T08:53:10.288Z,25.67
2018-07-03T08:54:10.317Z,25.67
2018-07-03T08:55:10.383Z,25.66
2018-07-03T08:56:10.365Z,25.72
2018-07-03T08:57:10.394Z,25.67
2018-07-03T08:58:10.453Z,25.63
2018-07-03T08:59:10.456Z,25.48
2018-07-03T09:00:10.469Z,25.46
2018-07-03T09:01:10.495Z,25.38
2018-07-03T09:02:10.517Z,25.24
2018-07-03T09:03:10.542Z,25.19
2018-07-03T09:04:10.575Z,25.19
2018-07-03T09:05:10.604Z,25.08
2018-07-03T09:06:10.626Z,25.24
2018-07-03T09:07:10.645Z,25.31
2018-07-03T09:08:10.674Z,25.45
2018-07-03T09:09:10.696Z,25.31
2018-07-03T09:10:10.727Z,25.38
2018-07-03T09:11:10.755Z,25.39
2018-07-03T09:12:10.773Z,25.19
2018-07-03T09:13:10.844Z,25.01
2018-07-03T09:14:10.837Z,24.86
2018-07-03T09:15:10.855Z,24.99
2018-07-03T09:16:10.888Z,25.07
2018-07-03T09:17:10.913Z,25.09
2018-07-03T09:18:11.016Z,25.20
2018-07-03T09:19:10.987Z,25.35
2018-07-03T09:20:10.981Z,25.29
2018-07-03T09:21:11.009Z,25.41
2018-07-03T09:22:11.034Z,25.44
2018-07-03T09:23:11.053Z,25.41
2018-07-03T09:24:11.089Z,25.46
2018-07-03T09:25:11.107Z,25.51
2018-07-03T09:26:11.137Z,25.51
2018-07-03T09:27:11.162Z,25.45
2018-07-03T09:28:11.181Z,25.51
2018-07-03T09:29:11.210Z,25.48
2018-07-03T09:30:11.239Z,25.48
2018-07-03T09:31:11.259Z,25.44
2018-07-03T09:32:11.290Z,25.51
2018-07-03T09:33:11.313Z,25.45
2018-07-03T09:34:11.335Z,25.51
2018-07-03T09:35:11.359Z,25.44
2018-07-03T09:36:11.390Z,25.46
2018-07-03T09:37:11.414Z,25.51
2018-07-03T09:38:11.435Z,25.53
2018-07-03T09:39:11.484Z,25.54
2018-07-03T09:40:11.487Z,25.53
2018-07-03T09:41:11.518Z,25.49
2018-07-03T09:42:11.542Z,25.56
2018-07-03T09:43:11.570Z,25.44
2018-07-03T09:44:11.588Z,25.41
2018-07-03T09:45:11.613Z,25.49
2018-07-03T09:46:11.644Z,25.46
2018-07-03T09:47:11.670Z,25.45
2018-07-03T09:48:11.696Z,25.41
2018-07-03T09:49:11.719Z,25.39
2018-07-03T09:50:11.745Z,25.44
2018-07-03T09:51:11.768Z,25.46
2018-07-03T09:52:11.795Z,25.49
2018-07-03T09:53:11.822Z,25.45
2018-07-03T09:54:11.839Z,25.38
2018-07-03T09:55:11.869Z,25.41
2018-07-03T09:56:11.910Z,25.46
2018-07-03T09:57:11.917Z,25.45
2018-07-03T09:58:11.951Z,25.49
2018-07-03T09:59:11.971Z,25.39
2018-07-03T10:00:11.996Z,25.38
2018-07-03T10:01:12.022Z,25.44
2018-07-03T10:02:12.046Z,25.31
2018-07-03T10:03:12.193Z,25.41
2018-07-03T10:04:12.099Z,25.42
2018-07-03T10:05:12.127Z,25.27
2018-07-03T10:06:12.148Z,25.38
2018-07-03T10:07:12.172Z,25.39
2018-07-03T10:08:12.201Z,25.42
2018-07-03T10:09:12.223Z,25.36
2018-07-03T10:10:12.252Z,25.42
2018-07-03T10:11:12.271Z,25.31
2018-07-03T10:12:12.297Z,25.27
2018-07-03T10:13:12.318Z,25.35
2018-07-03T10:14:12.352Z,25.30
2018-07-03T10:15:12.379Z,25.29
2018-07-03T10:16:12.408Z,25.36
2018-07-03T10:17:12.424Z,25.26
2018-07-03T10:18:12.450Z,25.30
2018-07-03T10:19:12.479Z,25.27
2018-07-03T10:20:12.502Z,25.39
2018-07-03T10:21:12.527Z,25.34
2018-07-03T10:22:12.548Z,25.34
2018-07-03T10:23:12.593Z,25.29
2018-07-03T10:24:12.668Z,25.39
2018-07-03T10:25:12.633Z,25.27
2018-07-03T10:26:12.650Z,25.31
2018-07-03T10:27:12.675Z,25.24
2018-07-03T10:28:12.698Z,25.30
2018-07-03T10:29:12.723Z,25.23
2018-07-03T10:30:12.761Z,25.16
2018-07-03T10:31:12.788Z,25.20
2018-07-03T10:32:12.806Z,25.23
2018-07-03T10:33:12.828Z,25.17
2018-07-03T10:34:12.850Z,25.19
2018-07-03T10:35:12.877Z,25.19
2018-07-03T10:36:12.901Z,25.19
2018-07-03T10:37:12.927Z,25.12
2018-07-03T10:38:12.955Z,25.17
2018-07-03T10:39:12.983Z,25.23
2018-07-03T10:40:12.999Z,25.22
2018-07-03T10:41:13.079Z,25.23
2018-07-03T10:42:13.053Z,25.17
2018-07-03T10:43:13.095Z,25.29
2018-07-03T10:44:13.106Z,25.09
2018-07-03T10:45:13.130Z,25.22
2018-07-03T10:46:13.152Z,25.20
2018-07-03T10:47:13.179Z,25.14
2018-07-03T10:48:13.212Z,25.09
2018-07-03T10:49:13.232Z,25.07
2018-07-03T10:50:13.252Z,25.12
2018-07-03T10:51:13.277Z,25.11
2018-07-03T10:52:13.309Z,25.05
2018-07-03T10:53:13.329Z,25.07
2018-07-03T10:54:13.371Z,25.09
2018-07-03T10:55:13.389Z,25.04
2018-07-03T10:56:13.403Z,25.11
2018-07-03T10:57:13.434Z,25.07
2018-07-03T10:58:13.455Z,25.01
2018-07-03T10:59:13.482Z,24.97
2018-07-03T11:00:13.504Z,25.09
2018-07-03T11:01:13.529Z,25.04
2018-07-03T11:02:13.550Z,25.07
2018-07-03T11:03:13.576Z,25.05
2018-07-03T11:04:13.601Z,25.08
2018-07-03T11:05:13.627Z,25.08
2018-07-03T11:06:13.650Z,25.07
2018-07-03T11:07:13.674Z,25.04
2018-07-03T11:08:13.708Z,25.04
2018-07-03T11:09:13.727Z,25.08
2018-07-03T11:10:13.754Z,25.07
2018-07-03T11:11:13.781Z,24.99
2018-07-03T11:12:13.802Z,25.02
2018-07-03T11:13:13.824Z,25.08
2018-07-03T11:14:13.853Z,25.02
2018-07-03T11:15:13.878Z,24.94
2018-07-03T11:16:13.909Z,25.01
2018-07-03T11:17:13.932Z,25.07
2018-07-03T11:18:13.951Z,25.02
2018-07-03T11:19:13.976Z,25.04
2018-07-03T11:20:14.087Z,25.04
2018-07-03T11:21:14.030Z,24.93
2018-07-03T11:22:14.050Z,25.02
2018-07-03T11:23:14.078Z,24.93
2018-07-03T11:24:14.097Z,25.02
2018-07-03T11:25:14.125Z,24.98
2018-07-03T11:26:14.152Z,25.02
2018-07-03T11:27:14.181Z,24.97
2018-07-03T11:28:14.200Z,24.99
2018-07-03T11:29:14.232Z,24.98
2018-07-03T11:30:14.253Z,25.01
2018-07-03T11:31:14.281Z,24.98
2018-07-03T11:32:14.299Z,24.97
2018-07-03T11:33:14.319Z,25.01
2018-07-03T11:34:14.346Z,24.99
2018-07-03T11:35:14.371Z,25.08
2018-07-03T11:36:14.397Z,24.99
2018-07-03T11:37:14.450Z,24.99
2018-07-03T11:38:14.448Z,25.02
2018-07-03T11:39:14.472Z,25.07
2018-07-03T11:40:14.495Z,25.04
2018-07-03T11:41:14.520Z,25.04
2018-07-03T11:42:14.552Z,25.02
2018-07-03T11:43:14.609Z,25.08
2018-07-03T11:44:14.599Z,25.02
2018-07-03T11:45:14.620Z,25.05
2018-07-03T11:46:14.651Z,25.05
2018-07-03T11:47:14.676Z,25.09
2018-07-03T11:48:14.702Z,24.99
2018-07-03T11:49:14.723Z,25.05
2018-07-03T11:50:14.745Z,25.09
2018-07-03T11:51:14.771Z,25.11
2018-07-03T11:52:14.801Z,25.05
2018-07-03T11:53:14.859Z,25.09
2018-07-03T11:54:14.842Z,25.04
2018-07-03T11:55:14.875Z,25.01
2018-07-03T11:56:14.895Z,25.08
2018-07-03T11:57:14.923Z,25.04
2018-07-03T11:58:14.946Z,25.12
2018-07-03T11:59:14.976Z,25.09
2018-07-03T12:00:15.002Z,25.08
2018-07-03T12:01:15.015Z,25.04
2018-07-03T12:02:15.098Z,25.02
2018-07-03T12:03:15.073Z,25.07
2018-07-03T12:04:15.096Z,25.11
2018-07-03T12:05:15.120Z,25.08
2018-07-03T12:06:15.141Z,25.12
2018-07-03T12:07:15.165Z,25.12
2018-07-03T12:08:15.200Z,25.09
2018-07-03T12:09:15.224Z,25.09
2018-07-03T12:10:15.240Z,25.09
2018-07-03T12:11:15.309Z,25.12
2018-07-03T12:12:15.291Z,25.12
2018-07-03T12:13:15.313Z,25.12
2018-07-03T12:14:15.343Z,25.05
2018-07-03T12:15:15.367Z,25.17
2018-07-03T12:16:15.384Z,25.08
2018-07-03T12:17:15.424Z,25.07
2018-07-03T12:18:15.444Z,25.11
2018-07-03T12:19:15.468Z,25.05
2018-07-03T12:20:15.495Z,25.12
2018-07-03T12:21:15.516Z,25.14
2018-07-03T12:22:15.542Z,25.01
2018-07-03T12:23:15.566Z,25.02
2018-07-03T12:24:15.591Z,25.08
2018-07-03T12:25:15.622Z,25.09
2018-07-03T12:26:15.677Z,25.08
2018-07-03T12:27:15.671Z,25.08
2018-07-03T12:28:15.686Z,25.07
2018-07-03T12:29:15.763Z,25.07
2018-07-03T12:30:15.744Z,25.14
2018-07-03T12:31:16.775Z,25.04
2018-07-03T12:32:15.793Z,25.08
2018-07-03T12:33:15.810Z,25.09
2018-07-03T12:34:15.845Z,25.07
2018-07-03T12:35:15.857Z,25.05
2018-07-03T12:36:15.890Z,25.04
2018-07-03T12:37:15.914Z,25.09
2018-07-03T12:38:15.945Z,25.05
2018-07-03T12:39:15.966Z,24.98
2018-07-03T12:40:15.988Z,25.02
2018-07-03T12:41:16.011Z,25.04
2018-07-03T12:42:16.039Z,24.97
2018-07-03T12:43:16.068Z,24.98
2018-07-03T12:44:16.084Z,24.94
2018-07-03T12:45:16.107Z,24.92
2018-07-03T12:46:16.135Z,24.98
2018-07-03T12:47:16.159Z,24.93
2018-07-03T12:48:16.198Z,24.98
2018-07-03T12:49:16.248Z,24.99
2018-07-03T12:50:16.233Z,25.01
2018-07-03T12:51:16.281Z,25.01
2018-07-03T12:52:16.278Z,25.05
2018-07-03T12:53:16.303Z,25.04